Time;durP1;ratioP1;P1;durP2;ratioP2;P2;SDS_P1;SDS_P2;PMS_P1;PMS_P2;Temp;Humidity;BMP_temperature;BMP_pressure;BME280_temperature;BME280_humidity;BME280_pressure;Samples;Min_cycle;Max_cycle;Signal;HPM_P1;HPM_P2
2022/10/03 00:01:58;;;;;;;8.45;1.00;;;10.10;99.90;;;;;;5108970;28;20036;-81
2022/10/03 00:04:40;;;;;;;9.80;1.40;;;10.10;99.90;;;;;;5109053;28;20043;-81
2022/10/03 00:07:32;;;;;;;2.70;0.90;;;10.10;99.90;;;;;;5109507;28;20048;-81
2022/10/03 00:10:11;;;;;;;11.45;1.17;;;10.10;99.90;;;;;;5109048;28;20377;-82
2022/10/03 00:13:17;;;;;;;12.75;1.27;;;10.10;99.90;;;;;;5126190;28;20039;-81
2022/10/03 00:16:04;;;;;;;10.55;1.30;;;10.10;99.90;;;;;;5088910;28;20508;-81
2022/10/03 00:18:43;;;;;;;12.20;1.73;;;10.10;99.90;;;;;;5108534;28;20043;-81
2022/10/03 00:21:40;;;;;;;5.43;1.13;;;10.20;99.90;;;;;;5109491;28;20089;-81
2022/10/03 00:24:33;;;;;;;8.95;1.20;;;10.30;99.90;;;;;;5109210;28;20403;-82
2022/10/03 00:27:14;;;;;;;7.32;1.20;;;10.30;99.90;;;;;;5093964;28;20043;-82
2022/10/03 00:29:50;;;;;;;17.73;1.70;;;10.40;99.90;;;;;;5108801;28;20040;-81
2022/10/03 00:32:42;;;;;;;6.38;1.30;;;10.40;99.90;;;;;;5109411;28;20042;-82
2022/10/03 00:35:17;;;;;;;6.25;1.00;;;10.50;99.90;;;;;;5109266;28;20093;-81
2022/10/03 00:38:08;;;;;;;6.18;1.20;;;10.50;99.90;;;;;;5109038;28;20123;-81
2022/10/03 00:40:55;;;;;;;6.22;1.00;;;10.50;99.90;;;;;;5109016;28;20047;-81
2022/10/03 00:43:22;;;;;;;8.30;2.25;;;10.50;99.90;;;;;;5095679;28;20044;-81
2022/10/03 00:46:26;;;;;;;7.30;1.00;;;10.50;99.90;;;;;;5108719;28;20047;-82
2022/10/03 00:48:56;;;;;;;7.10;0.93;;;10.50;99.90;;;;;;5125790;28;20043;-81
2022/10/03 00:51:47;;;;;;;9.18;1.50;;;10.50;99.90;;;;;;5108987;28;20040;-81
2022/10/03 00:54:41;;;;;;;9.57;1.27;;;10.50;99.90;;;;;;5108845;28;20090;-82
2022/10/03 00:57:32;;;;;;;6.45;1.48;;;10.50;99.90;;;;;;5108918;28;20456;-82
2022/10/03 01:00:14;;;;;;;5.95;1.15;;;10.50;99.90;;;;;;5109366;28;20042;-81
2022/10/03 01:02:51;;;;;;;7.95;1.23;;;10.50;99.90;;;;;;5108549;28;20043;-81
2022/10/03 01:05:57;;;;;;;6.57;1.02;;;10.50;99.90;;;;;;5108933;28;20044;-82
2022/10/03 01:08:46;;;;;;;6.43;2.50;;;10.50;99.90;;;;;;5108701;28;20449;-82
2022/10/03 01:11:45;;;;;;;4.40;1.17;;;10.50;99.90;;;;;;5125720;28;20047;-81
2022/10/03 01:14:15;;;;;;;5.35;1.00;;;10.50;99.90;;;;;;5108786;28;20035;-81
2022/10/03 01:17:12;;;;;;;5.30;1.23;;;10.50;99.90;;;;;;5108287;28;20407;-81
2022/10/03 01:20:07;;;;;;;10.43;1.27;;;10.50;99.90;;;;;;5125067;28;20089;-82
2022/10/03 01:23:24;;;;;;;5.45;0.73;;;10.60;99.90;;;;;;5108494;28;20805;-81
2022/10/03 01:26:13;;;;;;;7.07;1.00;;;10.60;99.90;;;;;;5108517;28;20071;-81
2022/10/03 01:32:14;;;;;;;4.32;1.35;;;10.60;99.90;;;;;;5127767;28;20047;-82
2022/10/03 01:34:44;;;;;;;4.35;0.80;;;10.60;99.90;;;;;;5111878;28;20126;-81
2022/10/03 01:37:40;;;;;;;6.13;1.10;;;10.60;99.90;;;;;;5112024;28;20043;-82
2022/10/03 01:40:25;;;;;;;4.97;1.20;;;10.60;99.90;;;;;;5093298;28;20048;-82
2022/10/03 01:42:59;;;;;;;6.90;1.13;;;10.70;99.90;;;;;;5111832;28;20417;-81
2022/10/03 01:45:54;;;;;;;4.60;0.90;;;10.80;99.90;;;;;;5111962;28;20044;-81
2022/10/03 01:48:35;;;;;;;11.32;1.05;;;10.80;99.90;;;;;;5112323;28;20043;-82
2022/10/03 01:51:06;;;;;;;5.57;0.80;;;10.90;99.90;;;;;;5112149;28;20040;-82
2022/10/03 01:53:57;;;;;;;8.43;0.98;;;10.80;99.90;;;;;;5111874;28;20393;-81
2022/10/03 01:56:50;;;;;;;10.15;1.02;;;10.80;99.90;;;;;;5111793;28;20044;-81
2022/10/03 01:59:40;;;;;;;7.35;0.98;;;10.80;99.90;;;;;;5128762;28;20055;-82
2022/10/03 02:02:24;;;;;;;11.40;1.33;;;10.80;99.90;;;;;;5111466;28;20048;-81
2022/10/03 02:05:02;;;;;;;13.10;1.00;;;10.80;99.90;;;;;;5111415;28;20090;-81
2022/10/03 02:08:16;;;;;;;4.07;0.70;;;10.70;99.90;;;;;;5128554;28;20090;-81
2022/10/03 02:11:02;;;;;;;10.13;1.23;;;10.60;99.90;;;;;;5053684;28;20073;-81
2022/10/03 02:13:57;;;;;;;12.27;1.10;;;10.60;99.90;;;;;;5088234;28;20102;-81
2022/10/03 02:16:38;;;;;;;7.88;0.98;;;10.60;99.90;;;;;;5107719;28;20075;-81
2022/10/03 02:19:35;;;;;;;6.75;0.73;;;10.60;99.90;;;;;;5090881;28;20398;-81
2022/10/03 02:22:02;;;;;;;4.40;1.00;;;10.60;99.90;;;;;;5090980;28;20083;-81
2022/10/03 02:24:42;;;;;;;9.85;1.23;;;10.60;99.90;;;;;;5074632;28;20076;-82
2022/10/03 02:28:00;;;;;;;7.03;1.13;;;10.60;99.90;;;;;;5091072;28;20080;-81
2022/10/03 02:30:38;;;;;;;9.85;1.33;;;10.70;99.90;;;;;;5090968;28;20052;-81
2022/10/03 02:33:05;;;;;;;6.22;1.20;;;10.70;99.90;;;;;;5090976;28;20496;-81
2022/10/03 02:36:29;;;;;;;3.90;1.17;;;10.70;99.90;;;;;;5107721;28;20041;-81
2022/10/03 02:39:22;;;;;;;7.30;1.08;;;10.70;99.90;;;;;;5091336;28;20832;-81
2022/10/03 02:41:55;;;;;;;3.63;0.77;;;10.70;99.90;;;;;;5110335;28;20036;-81
2022/10/03 02:44:52;;;;;;;7.80;1.58;;;10.70;99.90;;;;;;5110940;28;20081;-81
2022/10/03 02:47:44;;;;;;;7.40;0.95;;;10.70;99.90;;;;;;5111143;28;20533;-82
2022/10/03 02:50:38;;;;;;;7.93;1.00;;;10.70;99.90;;;;;;5110795;28;20407;-81
2022/10/03 02:53:26;;;;;;;13.32;1.10;;;10.70;99.90;;;;;;5110592;28;20492;-81
2022/10/03 02:56:05;;;;;;;5.30;1.75;;;10.70;99.90;;;;;;5110176;28;20052;-82
2022/10/03 02:59:10;;;;;;;9.18;0.98;;;10.70;99.90;;;;;;5110563;28;20044;-82
2022/10/03 03:01:57;;;;;;;7.22;1.15;;;10.80;99.90;;;;;;5072645;28;20056;-81
2022/10/03 03:04:27;;;;;;;10.50;1.10;;;10.80;99.90;;;;;;5072750;28;20048;-81
2022/10/03 03:07:29;;;;;;;3.00;0.82;;;10.80;99.90;;;;;;5095691;28;20434;-82
2022/10/03 03:10:16;;;;;;;8.80;1.02;;;10.80;99.90;;;;;;5110284;28;20480;-81
2022/10/03 03:13:06;;;;;;;5.22;0.98;;;10.80;99.90;;;;;;5126958;28;20093;-81
2022/10/03 03:16:00;;;;;;;8.07;0.93;;;10.80;99.90;;;;;;5110137;28;20123;-81
2022/10/03 03:18:43;;;;;;;5.35;0.75;;;10.90;99.90;;;;;;5110276;28;20040;-82
2022/10/03 03:21:32;;;;;;;5.70;1.30;;;10.90;99.90;;;;;;5109991;28;20048;-81
2022/10/03 03:24:25;;;;;;;8.02;1.23;;;10.90;99.90;;;;;;5110001;28;20449;-82
2022/10/03 03:27:12;;;;;;;7.07;1.08;;;10.80;99.90;;;;;;5109794;28;20078;-81
2022/10/03 03:29:50;;;;;;;4.88;0.90;;;10.70;99.90;;;;;;5127140;28;20400;-81
2022/10/03 03:32:37;;;;;;;5.22;1.10;;;10.70;99.90;;;;;;5110206;28;20055;-81
2022/10/03 03:35:19;;;;;;;7.22;1.10;;;10.60;99.90;;;;;;5109746;28;20043;-81
2022/10/03 03:38:02;;;;;;;5.40;1.17;;;10.60;99.90;;;;;;5110098;28;20125;-81
2022/10/03 03:40:58;;;;;;;8.05;1.10;;;10.50;99.90;;;;;;5127263;28;20043;-81
2022/10/03 03:43:33;;;;;;;8.23;1.23;;;10.50;99.90;;;;;;5083791;28;20506;-81
2022/10/03 03:46:17;;;;;;;7.30;0.75;;;10.40;99.90;;;;;;5109499;28;20062;-81
2022/10/03 03:49:16;;;;;;;6.55;0.73;;;10.80;99.90;;;;;;5109727;28;20040;-81
2022/10/03 03:51:49;;;;;;;3.65;0.70;;;10.30;99.90;;;;;;5109881;28;20040;-81
2022/10/03 03:54:58;;;;;;;7.47;1.00;;;10.30;99.90;;;;;;5108628;28;20474;-81
2022/10/03 03:57:38;;;;;;;3.75;0.65;;;10.30;99.90;;;;;;5109242;28;20101;-82
2022/10/03 04:00:20;;;;;;;4.63;0.90;;;10.20;99.90;;;;;;5109597;28;20047;-82
2022/10/03 04:03:15;;;;;;;4.95;0.60;;;10.10;99.90;;;;;;5126580;28;20032;-81
2022/10/03 04:06:16;;;;;;;5.55;1.30;;;10.10;99.90;;;;;;5109667;28;20499;-81
2022/10/03 04:09:08;;;;;;;7.10;1.02;;;10.10;99.90;;;;;;5126510;28;20434;-81
2022/10/03 04:12:08;;;;;;;5.43;0.80;;;10.00;99.90;;;;;;5109426;28;20542;-81
2022/10/03 04:14:50;;;;;;;8.77;0.80;;;9.90;99.90;;;;;;5109293;28;20561;-81
2022/10/03 04:20:48;;;;;;;3.67;0.90;;;9.90;99.90;;;;;;5126323;28;20408;-81
2022/10/03 04:23:36;;;;;;;3.45;1.00;;;9.90;99.90;;;;;;5126329;28;20043;-81
2022/10/03 04:26:30;;;;;;;10.18;1.40;;;9.90;99.90;;;;;;5109172;28;20075;-81
2022/10/03 04:29:06;;;;;;;5.65;1.30;;;9.90;99.90;;;;;;5109309;28;20124;-82
2022/10/03 04:32:17;;;;;;;4.95;0.88;;;10.00;99.90;;;;;;5109480;28;20040;-82
2022/10/03 04:35:02;;;;;;;8.20;1.33;;;10.00;99.90;;;;;;5115812;28;20044;-82
2022/10/03 04:37:43;;;;;;;8.03;1.03;;;10.00;99.90;;;;;;5126034;28;20040;-81
2022/10/03 04:40:16;;;;;;;9.93;1.05;;;10.00;99.90;;;;;;5125888;28;20274;-81
2022/10/03 04:42:59;;;;;;;5.38;0.80;;;10.00;99.90;;;;;;5109243;28;20036;-81
2022/10/03 04:45:44;;;;;;;5.28;0.88;;;10.10;99.90;;;;;;5105691;28;20400;-81
2022/10/03 04:48:38;;;;;;;9.10;1.08;;;10.10;99.90;;;;;;5088835;28;20041;-81
2022/10/03 04:51:49;;;;;;;5.90;0.88;;;10.10;99.90;;;;;;5099850;28;20515;-81
2022/10/03 04:54:32;;;;;;;12.20;1.20;;;10.10;99.90;;;;;;5059209;28;20048;-81
2022/10/03 04:57:16;;;;;;;7.30;1.30;;;10.10;99.90;;;;;;5108786;28;20531;-81
2022/10/03 05:00:14;;;;;;;11.38;1.60;;;10.10;99.90;;;;;;5108897;28;20126;-81
2022/10/03 05:02:50;;;;;;;7.97;1.20;;;10.10;99.90;;;;;;5108804;28;20040;-82
2022/10/03 05:05:37;;;;;;;6.65;1.20;;;10.10;99.90;;;;;;5126840;28;20040;-81
2022/10/03 05:08:22;;;;;;;8.05;1.02;;;10.10;99.90;;;;;;5101712;28;20043;-81
2022/10/03 05:11:27;;;;;;;5.50;1.08;;;10.00;99.90;;;;;;5104768;28;20036;-82
2022/10/03 05:13:59;;;;;;;7.30;1.20;;;10.00;99.90;;;;;;5094682;28;20517;-82
2022/10/03 05:16:42;;;;;;;5.90;1.63;;;10.00;99.90;;;;;;5109314;28;20112;-81
2022/10/03 05:19:27;;;;;;;7.68;0.90;;;10.10;99.90;;;;;;5112249;28;20114;-81
2022/10/03 05:22:22;;;;;;;9.57;1.25;;;10.00;99.90;;;;;;5111566;28;20043;-81
2022/10/03 05:25:27;;;;;;;5.90;1.10;;;10.00;99.90;;;;;;5112052;28;20047;-81
2022/10/03 05:28:06;;;;;;;3.88;0.95;;;10.00;99.90;;;;;;5091636;28;20143;-81
2022/10/03 05:31:02;;;;;;;2.78;0.82;;;9.90;99.90;;;;;;5098539;28;20040;-82
2022/10/03 05:33:56;;;;;;;12.52;1.30;;;9.90;99.90;;;;;;5111230;28;20068;-82
2022/10/03 05:36:23;;;;;;;5.20;0.80;;;9.90;99.90;;;;;;5130714;28;20133;-82
2022/10/03 05:39:08;;;;;;;9.32;1.10;;;9.90;99.90;;;;;;5111809;28;20503;-82
2022/10/03 05:41:36;;;;;;;11.27;1.10;;;9.90;99.90;;;;;;5112195;28;20077;-82
2022/10/03 05:44:18;;;;;;;4.10;0.88;;;9.80;99.90;;;;;;5095985;28;20082;-82
2022/10/03 05:50:30;;;;;;;3.90;0.93;;;9.80;99.90;;;;;;5108258;28;20052;-82
2022/10/03 05:52:56;;;;;;;6.55;1.02;;;9.80;99.90;;;;;;5091712;28;20131;-82
2022/10/03 05:55:37;;;;;;;2.78;0.80;;;9.90;99.90;;;;;;5091387;28;20140;-82
2022/10/03 05:58:21;;;;;;;3.97;0.93;;;9.80;99.90;;;;;;5108378;28;20519;-82
2022/10/03 06:01:23;;;;;;;2.40;0.90;;;9.80;99.90;;;;;;5091741;28;20044;-82
2022/10/03 06:03:59;;;;;;;9.48;1.08;;;9.80;99.90;;;;;;5070268;28;20037;-82
2022/10/03 06:06:49;;;;;;;5.03;0.70;;;9.80;99.90;;;;;;5085865;28;20057;-82
2022/10/03 06:09:54;;;;;;;5.45;0.90;;;9.80;99.90;;;;;;5119255;28;20040;-82
2022/10/03 06:12:44;;;;;;;6.45;1.02;;;9.80;99.90;;;;;;5111663;28;20039;-82
2022/10/03 06:15:35;;;;;;;6.60;1.23;;;9.80;99.90;;;;;;5121131;28;20090;-82
2022/10/03 06:18:21;;;;;;;9.70;1.30;;;9.80;99.90;;;;;;5110782;28;20480;-82
2022/10/03 06:21:09;;;;;;;5.32;1.05;;;9.90;99.90;;;;;;5111629;28;20032;-82
2022/10/03 06:23:58;;;;;;;6.10;0.93;;;9.80;99.90;;;;;;5111087;28;20400;-81
2022/10/03 06:26:58;;;;;;;5.20;0.80;;;9.80;99.90;;;;;;5111066;28;20036;-82
2022/10/03 06:30:02;;;;;;;5.13;0.82;;;9.90;99.90;;;;;;5127888;28;20066;-82
2022/10/03 06:33:14;;;;;;;6.35;1.80;;;9.90;99.90;;;;;;5110654;28;20035;-82
2022/10/03 06:36:05;;;;;;;5.03;1.50;;;9.90;99.90;;;;;;5103092;28;20051;-82
2022/10/03 06:39:16;;;;;;;3.25;0.82;;;9.90;99.90;;;;;;5110950;28;20505;-82
2022/10/03 06:41:53;;;;;;;6.20;1.00;;;9.90;99.90;;;;;;5105977;28;20137;-82
2022/10/03 06:44:36;;;;;;;4.88;1.08;;;10.00;99.90;;;;;;5111016;28;20032;-82
2022/10/03 06:47:23;;;;;;;7.60;1.27;;;10.00;99.90;;;;;;5110635;28;20040;-82
2022/10/03 06:50:17;;;;;;;8.88;1.15;;;10.10;99.90;;;;;;5110429;28;20043;-82
2022/10/03 06:52:59;;;;;;;14.02;1.75;;;10.10;99.90;;;;;;5126504;28;20868;-82
2022/10/03 06:55:47;;;;;;;6.43;1.25;;;10.20;99.90;;;;;;5109965;28;20075;-82
2022/10/03 06:58:39;;;;;;;3.83;0.80;;;10.30;99.90;;;;;;5110741;28;20699;-82
2022/10/03 07:01:18;;;;;;;4.38;0.90;;;10.30;99.90;;;;;;5105908;28;20040;-82
2022/10/03 07:04:32;;;;;;;11.45;1.02;;;10.30;99.90;;;;;;5107392;28;20033;-82
2022/10/03 07:07:06;;;;;;;8.45;1.33;;;10.30;99.90;;;;;;5090515;28;20072;-82
2022/10/03 07:10:00;;;;;;;4.20;0.80;;;10.30;99.90;;;;;;5096447;28;20079;-81
2022/10/03 07:13:09;;;;;;;4.50;1.20;;;10.40;99.90;;;;;;5105413;28;20062;-82
2022/10/03 07:16:15;;;;;;;2.55;0.70;;;10.40;99.90;;;;;;5127059;28;20039;-82
2022/10/03 07:19:10;;;;;;;11.00;1.15;;;10.40;99.90;;;;;;5109966;28;20136;-82
2022/10/03 07:22:06;;;;;;;3.72;1.10;;;10.50;99.90;;;;;;5109893;28;20492;-82
2022/10/03 07:24:39;;;;;;;4.00;0.95;;;10.60;99.90;;;;;;5126819;28;20050;-82
2022/10/03 07:27:18;;;;;;;8.25;1.05;;;10.60;99.90;;;;;;5110382;28;20070;-82
2022/10/03 07:30:03;;;;;;;5.55;1.15;;;10.60;99.90;;;;;;5110279;28;20044;-82
2022/10/03 07:32:42;;;;;;;5.05;0.98;;;10.70;99.90;;;;;;5126341;28;20507;-82
2022/10/03 07:38:57;;;;;;;7.13;1.10;;;10.80;99.90;;;;;;5095765;28;20420;-82
2022/10/03 07:41:55;;;;;;;8.00;1.33;;;10.90;99.90;;;;;;5107688;28;20027;-82
2022/10/03 07:44:43;;;;;;;8.35;1.15;;;11.00;99.90;;;;;;5107100;28;20404;-82
2022/10/03 07:47:39;;;;;;;7.80;1.00;;;11.20;99.90;;;;;;5126872;28;20044;-82
2022/10/03 07:50:23;;;;;;;3.35;0.90;;;11.30;99.90;;;;;;5109718;28;20036;-82
2022/10/03 07:53:07;;;;;;;4.68;1.00;;;11.40;99.90;;;;;;5109316;28;20115;-82
2022/10/03 07:55:59;;;;;;;8.63;1.17;;;11.50;99.90;;;;;;5108734;28;20075;-81
2022/10/03 07:58:57;;;;;;;7.38;1.30;;;11.60;99.90;;;;;;5126441;28;20131;-82
2022/10/03 08:01:43;;;;;;;5.10;1.00;;;11.70;99.90;;;;;;5109561;28;20132;-84
2022/10/03 08:04:34;;;;;;;4.82;1.05;;;11.90;99.90;;;;;;5107557;28;20074;-83
2022/10/03 08:07:25;;;;;;;5.47;1.35;;;12.00;99.90;;;;;;5108954;28;20504;-82
2022/10/03 08:10:25;;;;;;;8.20;1.52;;;12.20;99.90;;;;;;5125431;28;20480;-82
2022/10/03 08:13:31;;;;;;;6.70;1.10;;;12.30;99.90;;;;;;5108554;28;20047;-81
2022/10/03 08:16:34;;;;;;;4.35;1.02;;;12.50;99.90;;;;;;5101101;28;20518;-82
2022/10/03 08:19:29;;;;;;;10.20;1.20;;;12.60;99.90;;;;;;5109256;28;20067;-82
2022/10/03 08:22:02;;;;;;;6.93;0.90;;;12.80;99.90;;;;;;5108913;28;20039;-82
2022/10/03 08:24:38;;;;;;;6.93;1.05;;;12.90;99.90;;;;;;5109028;28;20041;-82
2022/10/03 08:27:05;;;;;;;;;;;13.00;99.90;;;;;;5117118;28;20043;-82
2022/10/03 08:29:56;;;;;;;2.55;0.88;;;13.10;99.90;;;;;;5142374;28;19916;-82
2022/10/03 08:33:08;;;;;;;5.18;0.88;;;13.20;99.90;;;;;;5108428;28;20036;-81
2022/10/03 08:35:38;;;;;;;5.20;1.27;;;13.30;99.90;;;;;;5108136;28;20408;-82
2022/10/03 08:38:26;;;;;;;6.90;0.82;;;13.40;99.90;;;;;;5102935;28;20032;-82
2022/10/03 08:41:24;;;;;;;6.35;1.02;;;13.50;99.90;;;;;;5110797;28;20036;-81
2022/10/03 08:44:20;;;;;;;4.78;1.20;;;13.60;99.90;;;;;;5092552;28;20040;-82
2022/10/03 08:47:05;;;;;;;5.90;0.88;;;13.70;99.90;;;;;;5073853;28;20060;-81
2022/10/03 08:49:56;;;;;;;6.05;0.75;;;13.90;99.90;;;;;;5091852;28;20473;-82
2022/10/03 08:53:20;;;;;;;5.05;0.85;;;14.00;99.90;;;;;;5099306;28;20051;-82
2022/10/03 08:56:04;;;;;;;7.25;1.13;;;14.10;99.90;;;;;;5089288;28;20623;-82
2022/10/03 08:58:56;;;;;;;5.32;0.80;;;14.20;99.90;;;;;;5102847;28;20060;-81
2022/10/03 09:01:56;;;;;;;5.57;1.13;;;14.30;99.90;;;;;;5124999;28;20036;-82
2022/10/03 09:04:32;;;;;;;1.75;0.45;;;14.40;99.90;;;;;;5112041;28;20032;-82
2022/10/03 09:07:17;;;;;;;;;;;14.50;99.90;;;;;;5127694;28;20036;-82
2022/10/03 09:10:06;;;;;;;2.83;0.45;;;14.50;99.90;;;;;;5117141;28;19920;-82
2022/10/03 09:13:03;;;;;;;7.78;0.80;;;14.70;99.90;;;;;;5092283;28;20451;-81
2022/10/03 09:15:59;;;;;;;4.78;1.00;;;14.70;99.90;;;;;;5108108;28;20028;-81
2022/10/03 09:19:02;;;;;;;4.65;0.70;;;14.80;99.90;;;;;;5122235;28;20052;-82
2022/10/03 09:22:02;;;;;;;6.82;0.60;;;14.90;99.90;;;;;;5110606;28;20056;-82
2022/10/03 09:25:04;;;;;;;5.70;0.90;;;14.90;99.90;;;;;;5091372;28;20560;-83
2022/10/03 09:27:45;;;;;;;3.70;0.50;;;15.00;99.90;;;;;;5106643;28;20043;-83
2022/10/03 09:30:19;;;;;;;6.68;0.95;;;15.00;99.90;;;;;;5129076;28;20133;-82
2022/10/03 09:33:09;;;;;;;5.28;0.57;;;15.20;99.90;;;;;;5110980;28;20498;-81
2022/10/03 09:35:54;;;;;;;6.25;0.70;;;15.20;99.90;;;;;;5128062;28;20388;-81
2022/10/03 09:38:32;;;;;;;4.65;0.75;;;15.30;99.90;;;;;;5111163;28;20036;-82
2022/10/03 09:41:41;;;;;;;4.28;0.73;;;15.40;99.90;;;;;;5121784;28;20028;-82
2022/10/03 09:44:39;;;;;;;4.97;0.80;;;15.50;99.90;;;;;;5098419;28;20568;-83
2022/10/03 09:47:31;;;;;;;7.18;0.80;;;15.50;99.90;;;;;;5109453;28;20086;-83
2022/10/03 09:50:35;;;;;;;2.90;0.50;;;15.60;99.90;;;;;;5122643;28;20044;-83
2022/10/03 09:53:23;;;;;;;4.65;0.70;;;15.60;99.90;;;;;;5098785;28;20041;-82
2022/10/03 09:56:12;;;;;;;4.82;0.63;;;15.70;99.90;;;;;;5102359;28;20036;-82
2022/10/03 09:58:57;;;;;;;2.67;0.70;;;15.70;99.90;;;;;;5107655;28;20036;-82
2022/10/03 10:01:45;;;;;;;3.28;0.55;;;15.80;99.90;;;;;;5101324;28;20044;-82
2022/10/03 10:04:18;;;;;;;6.93;0.88;;;15.80;99.90;;;;;;5108247;28;20044;-82
2022/10/03 10:06:53;;;;;;;1.50;0.50;;;15.80;99.90;;;;;;5110042;28;20051;-82
2022/10/03 10:09:35;;;;;;;;;;;15.80;99.90;;;;;;5111336;28;20043;-82
2022/10/03 10:12:23;;;;;;;3.83;0.52;;;15.90;99.90;;;;;;5098397;28;19916;-82
2022/10/03 10:15:00;;;;;;;2.88;0.63;;;15.90;99.90;;;;;;5126176;28;20077;-84
2022/10/03 10:17:51;;;;;;;2.83;0.60;;;16.00;99.90;;;;;;5110299;28;20036;-82
2022/10/03 10:20:40;;;;;;;6.97;0.82;;;16.00;99.90;;;;;;5110912;28;20376;-82
2022/10/03 10:23:13;;;;;;;5.07;0.82;;;16.00;99.90;;;;;;5108071;28;20133;-82
2022/10/03 10:25:51;;;;;;;2.70;0.70;;;16.10;99.90;;;;;;5110505;28;20036;-82
2022/10/03 10:29:13;;;;;;;3.97;0.75;;;16.20;99.90;;;;;;5110204;28;20032;-82
2022/10/03 10:31:52;;;;;;;2.53;0.55;;;16.20;99.90;;;;;;5071272;28;20043;-81
2022/10/03 10:34:19;;;;;;;2.75;0.50;;;16.30;99.90;;;;;;5094442;28;20048;-81
2022/10/03 10:37:15;;;;;;;3.65;0.82;;;16.30;99.90;;;;;;5109436;28;20039;-81
2022/10/03 10:39:54;;;;;;;;;;;16.40;99.90;;;;;;5110130;28;20754;-81
2022/10/03 10:42:27;;;;;;;1.77;0.50;;;16.50;99.90;;;;;;5116565;28;19916;-81
2022/10/03 10:45:22;;;;;;;3.05;0.60;;;16.50;99.90;;;;;;5110149;28;20039;-81
2022/10/03 10:48:15;;;;;;;2.00;0.45;;;16.60;99.90;;;;;;5109176;28;20071;-81
2022/10/03 10:51:22;;;;;;;1.95;0.38;;;16.70;99.90;;;;;;5108752;28;20093;-81
2022/10/03 10:54:10;;;;;;;5.70;0.90;;;16.80;99.90;;;;;;5126328;28;20047;-81
2022/10/03 10:56:59;;;;;;;4.45;1.13;;;17.00;99.90;;;;;;5109472;28;20063;-82
2022/10/03 10:59:32;;;;;;;6.35;0.73;;;17.10;99.90;;;;;;5126207;28;20040;-82
2022/10/03 11:02:37;;;;;;;5.28;0.68;;;17.20;99.90;;;;;;5126293;28;20466;-82
2022/10/03 11:05:41;;;;;;;1.85;0.52;;;17.00;99.90;;;;;;5109534;28;20040;-82
2022/10/03 11:08:48;;;;;;;4.85;0.57;;;17.00;99.90;;;;;;5109346;28;20593;-82
2022/10/03 11:11:53;;;;;;;2.25;0.60;;;17.00;99.90;;;;;;5109500;28;20411;-83
2022/10/03 11:14:49;;;;;;;4.65;0.60;;;17.00;99.90;;;;;;5109844;28;20085;-82
2022/10/03 11:17:15;;;;;;;;;;;17.00;99.90;;;;;;5054389;28;20460;-83
2022/10/03 11:20:01;;;;;;;6.68;0.60;;;17.00;99.90;;;;;;5105308;28;19916;-81
2022/10/03 11:22:34;;;;;;;2.53;0.70;;;17.10;99.90;;;;;;5108191;28;20032;-81
2022/10/03 11:25:19;;;;;;;3.95;0.77;;;17.20;99.90;;;;;;5124962;28;20048;-82
2022/10/03 11:28:28;;;;;;;2.60;0.68;;;17.20;99.90;;;;;;5108616;28;20502;-81
2022/10/03 11:31:26;;;;;;;3.58;0.60;;;17.30;99.90;;;;;;5113384;28;20381;-81
2022/10/03 11:34:17;;;;;;;3.58;0.70;;;17.40;99.90;;;;;;5095762;28;20557;-81
2022/10/03 11:37:16;;;;;;;3.47;0.50;;;17.40;99.90;;;;;;5125838;28;20040;-81
2022/10/03 11:40:03;;;;;;;1.40;0.50;;;17.20;99.90;;;;;;5109008;28;20096;-82
2022/10/03 11:42:54;;;;;;;3.72;0.52;;;17.20;99.90;;;;;;5100943;28;20116;-81
2022/10/03 11:45:29;;;;;;;4.32;0.70;;;17.40;99.90;;;;;;5109567;28;20089;-81
2022/10/03 11:48:30;;;;;;;2.33;0.70;;;17.40;99.90;;;;;;5125563;28;20036;-81
2022/10/03 11:51:38;;;;;;;3.20;0.70;;;17.60;99.90;;;;;;5125809;28;20571;-81
2022/10/03 11:54:31;;;;;;;5.45;0.50;;;17.60;99.90;;;;;;5125293;28;20433;-81
2022/10/03 11:57:08;;;;;;;1.58;0.40;;;17.50;99.90;;;;;;5107985;28;20584;-81
2022/10/03 12:00:11;;;;;;;1.13;0.40;;;17.40;99.90;;;;;;5092623;28;20388;-82
2022/10/03 12:02:52;;;;;;;8.90;1.00;;;17.40;99.90;;;;;;5107527;28;20039;-82
2022/10/03 12:05:31;;;;;;;5.18;0.80;;;17.50;99.90;;;;;;5109329;28;20067;-81
2022/10/03 12:11:16;;;;;;;1.90;0.43;;;17.60;99.90;;;;;;5125746;28;20484;-82
2022/10/03 12:14:13;;;;;;;3.03;0.70;;;17.70;99.90;;;;;;5108932;28;20467;-82
2022/10/03 12:16:52;;;;;;;2.72;0.60;;;17.70;99.90;;;;;;5109062;28;20203;-81
2022/10/03 12:19:23;;;;;;;2.80;0.40;;;17.50;99.90;;;;;;5108943;28;20157;-81
2022/10/03 12:22:07;;;;;;;1.98;0.65;;;17.50;99.90;;;;;;5108777;28;20039;-81
2022/10/03 12:24:40;;;;;;;1.25;0.40;;;17.50;99.90;;;;;;5125689;28;20111;-82
2022/10/03 12:27:12;;;;;;;5.32;1.23;;;17.50;99.90;;;;;;5125756;28;20073;-81
2022/10/03 12:29:44;;;;;;;4.28;0.75;;;17.40;99.90;;;;;;5108588;28;20040;-81
2022/10/03 12:32:43;;;;;;;5.22;0.80;;;17.30;99.90;;;;;;5108122;28;20040;-81
2022/10/03 12:35:42;;;;;;;1.50;0.47;;;17.30;99.90;;;;;;5105571;28;20040;-82
2022/10/03 12:38:33;;;;;;;2.67;0.70;;;17.20;99.90;;;;;;5097807;28;20495;-81
2022/10/03 12:41:05;;;;;;;1.27;0.50;;;17.10;99.90;;;;;;5108309;28;20109;-81
2022/10/03 12:44:06;;;;;;;10.40;1.00;;;17.10;99.90;;;;;;5108827;28;20040;-81
2022/10/03 12:46:42;;;;;;;1.17;0.30;;;17.20;99.90;;;;;;5105323;28;20557;-82
2022/10/03 12:49:35;;;;;;;2.03;0.50;;;17.10;99.90;;;;;;5108026;28;20040;-81
2022/10/03 12:52:26;;;;;;;3.97;0.75;;;17.00;99.90;;;;;;5125412;28;20097;-81
2022/10/03 12:55:07;;;;;;;1.02;0.30;;;16.90;99.90;;;;;;5119631;28;20044;-81
2022/10/03 12:58:00;;;;;;;3.55;0.47;;;16.90;99.90;;;;;;5122276;28;20867;-82
2022/10/03 13:00:38;;;;;;;4.18;0.70;;;16.90;99.90;;;;;;5121982;28;20028;-82
2022/10/03 13:03:13;;;;;;;3.95;0.70;;;17.00;99.90;;;;;;5121162;28;20036;-81
2022/10/03 13:06:08;;;;;;;2.50;0.67;;;17.00;99.90;;;;;;5108537;28;20042;-81
2022/10/03 13:08:41;;;;;;;1.58;0.55;;;17.00;99.90;;;;;;5108572;28;20500;-81
2022/10/03 13:11:45;;;;;;;3.25;0.93;;;17.00;99.90;;;;;;5107868;28;20105;-81
2022/10/03 13:14:49;;;;;;;4.25;0.70;;;16.90;99.90;;;;;;5124396;28;20044;-82
2022/10/03 13:17:28;;;;;;;3.58;0.60;;;16.90;99.90;;;;;;5124680;28;20050;-81
2022/10/03 13:20:05;;;;;;;3.53;0.60;;;16.80;99.90;;;;;;5125272;28;20076;-81
2022/10/03 13:22:59;;;;;;;3.50;0.40;;;16.70;99.90;;;;;;5087979;28;20547;-81
2022/10/03 13:25:32;;;;;;;3.00;0.70;;;16.70;99.90;;;;;;5104753;28;20119;-82
2022/10/03 13:28:11;;;;;;;3.47;0.65;;;16.60;99.90;;;;;;5109621;28;20130;-81
2022/10/03 13:30:47;;;;;;;3.45;0.50;;;16.60;99.90;;;;;;5129365;28;20078;-81
2022/10/03 13:33:25;;;;;;;4.25;0.60;;;16.60;99.90;;;;;;5111332;28;20044;-82
2022/10/03 13:36:27;;;;;;;2.72;0.70;;;16.60;99.90;;;;;;5111175;28;20492;-81
2022/10/03 13:39:28;;;;;;;3.92;0.57;;;16.70;99.90;;;;;;5126460;28;20040;-81
2022/10/03 13:42:52;;;;;;;5.57;0.60;;;16.70;99.90;;;;;;5110302;28;20519;-81
2022/10/03 13:45:24;;;;;;;3.83;0.70;;;16.70;99.90;;;;;;5115485;28;20062;-81
2022/10/03 13:47:58;;;;;;;4.20;0.60;;;16.70;99.90;;;;;;5094487;28;20134;-81
2022/10/03 13:50:39;;;;;;;4.07;0.75;;;16.80;99.90;;;;;;5120211;28;20047;-81
2022/10/03 13:53:11;;;;;;;3.33;0.60;;;16.70;99.90;;;;;;5111027;28;20066;-81
2022/10/03 13:55:44;;;;;;;2.05;0.60;;;16.70;99.90;;;;;;5111143;28;20098;-81
2022/10/03 13:58:25;;;;;;;1.40;0.40;;;16.70;99.90;;;;;;5107136;28;20036;-81
2022/10/03 14:01:16;;;;;;;2.83;0.77;;;16.60;99.90;;;;;;5127677;28;20042;-81
2022/10/03 14:04:04;;;;;;;1.23;0.50;;;16.50;99.90;;;;;;5109696;28;20044;-81
2022/10/03 14:06:35;;;;;;;5.32;1.45;;;16.50;99.90;;;;;;5122438;28;20036;-81
2022/10/03 14:09:25;;;;;;;3.33;0.68;;;16.50;99.90;;;;;;5110305;28;20039;-81
2022/10/03 14:12:22;;;;;;;4.85;0.60;;;16.50;99.90;;;;;;5110715;28;20047;-81
2022/10/03 14:15:01;;;;;;;5.18;0.73;;;16.50;99.90;;;;;;5090711;28;20101;-81
2022/10/03 14:17:53;;;;;;;3.10;0.40;;;16.60;99.90;;;;;;5096462;28;20056;-80
2022/10/03 14:20:28;;;;;;;3.90;0.65;;;16.60;99.90;;;;;;5106190;28;20363;-80
2022/10/03 14:23:19;;;;;;;1.52;0.40;;;16.60;99.90;;;;;;5101452;28;20032;-80
2022/10/03 14:25:59;;;;;;;4.88;0.70;;;16.60;99.90;;;;;;5121501;28;20040;-80
2022/10/03 14:28:44;;;;;;;2.88;0.50;;;16.60;99.90;;;;;;5124094;28;20119;-81
2022/10/03 14:31:34;;;;;;;5.28;0.93;;;16.60;99.90;;;;;;5109198;28;20048;-81
2022/10/03 14:34:14;;;;;;;3.42;0.75;;;16.60;99.90;;;;;;5103468;28;20027;-82
2022/10/03 14:36:59;;;;;;;4.55;0.70;;;16.60;99.90;;;;;;5125384;28;20140;-81
2022/10/03 14:40:31;;;;;;;2.40;0.52;;;16.60;99.90;;;;;;5108826;28;20082;-81
2022/10/03 14:43:32;;;;;;;6.28;0.90;;;16.60;99.90;;;;;;5062329;28;20040;-81
2022/10/03 14:46:01;;;;;;;2.50;0.70;;;16.60;99.90;;;;;;5123122;28;20079;-81
2022/10/03 14:48:35;;;;;;;3.17;0.80;;;16.50;99.90;;;;;;5109126;28;20538;-81
2022/10/03 14:51:15;;;;;;;4.18;0.57;;;16.50;99.90;;;;;;5109671;28;20211;-81
2022/10/03 14:53:50;;;;;;;3.08;0.80;;;16.50;99.90;;;;;;5109537;28;20094;-81